sensor_id;sensor_type;location;lat;lon;timestamp;temperature;humidity
21387;DHT22;10854;45.922;6.716;2023-05-24T00:01:32;15.80;97.90
21387;DHT22;10854;45.922;6.716;2023-05-24T00:04:01;15.80;98.00
21387;DHT22;10854;45.922;6.716;2023-05-24T00:06:29;15.80;98.10
21387;DHT22;10854;45.922;6.716;2023-05-24T00:09:04;15.80;98.60
21387;DHT22;10854;45.922;6.716;2023-05-24T00:11:33;15.70;99.00
21387;DHT22;10854;45.922;6.716;2023-05-24T00:14:01;15.70;99.60
21387;DHT22;10854;45.922;6.716;2023-05-24T00:16:29;15.70;99.90
21387;DHT22;10854;45.922;6.716;2023-05-24T00:18:58;15.70;99.90
21387;DHT22;10854;45.922;6.716;2023-05-24T00:21:26;15.70;99.90
21387;DHT22;10854;45.922;6.716;2023-05-24T00:23:54;15.60;99.90
21387;DHT22;10854;45.922;6.716;2023-05-24T00:26:23;15.50;99.90
21387;DHT22;10854;45.922;6.716;2023-05-24T00:28:51;15.60;99.90
21387;DHT22;10854;45.922;6.716;2023-05-24T00:31:19;15.50;99.90
21387;DHT22;10854;45.922;6.716;2023-05-24T00:33:48;15.50;99.90
21387;DHT22;10854;45.922;6.716;2023-05-24T00:36:16;15.50;99.90
21387;DHT22;10854;45.922;6.716;2023-05-24T00:38:45;15.50;99.90
21387;DHT22;10854;45.922;6.716;2023-05-24T00:41:13;15.50;99.90
21387;DHT22;10854;45.922;6.716;2023-05-24T00:43:42;15.50;99.90
21387;DHT22;10854;45.922;6.716;2023-05-24T00:46:24;15.50;99.90
21387;DHT22;10854;45.922;6.716;2023-05-24T00:48:54;15.50;99.90
21387;DHT22;10854;45.922;6.716;2023-05-24T00:51:23;15.60;99.90
21387;DHT22;10854;45.922;6.716;2023-05-24T00:53:53;15.50;99.90
21387;DHT22;10854;45.922;6.716;2023-05-24T00:56:22;15.60;99.90
21387;DHT22;10854;45.922;6.716;2023-05-24T00:58:51;15.60;99.90
21387;DHT22;10854;45.922;6.716;2023-05-24T01:01:22;15.60;99.90
21387;DHT22;10854;45.922;6.716;2023-05-24T01:03:53;15.60;99.90
21387;DHT22;10854;45.922;6.716;2023-05-24T01:06:22;15.60;99.90
21387;DHT22;10854;45.922;6.716;2023-05-24T01:09:33;15.60;99.90
21387;DHT22;10854;45.922;6.716;2023-05-24T01:15:13;15.60;99.90
21387;DHT22;10854;45.922;6.716;2023-05-24T01:18:39;15.60;99.90
21387;DHT22;10854;45.922;6.716;2023-05-24T01:21:33;15.60;99.90
21387;DHT22;10854;45.922;6.716;2023-05-24T01:27:14;15.60;99.90
21387;DHT22;10854;45.922;6.716;2023-05-24T01:29:46;15.50;99.90
21387;DHT22;10854;45.922;6.716;2023-05-24T01:32:20;15.50;99.90
21387;DHT22;10854;45.922;6.716;2023-05-24T01:34:48;15.40;99.90
21387;DHT22;10854;45.922;6.716;2023-05-24T01:37:17;15.40;99.90
21387;DHT22;10854;45.922;6.716;2023-05-24T01:39:45;15.40;99.90
21387;DHT22;10854;45.922;6.716;2023-05-24T01:42:25;15.40;99.90
21387;DHT22;10854;45.922;6.716;2023-05-24T01:47:52;15.40;99.90
21387;DHT22;10854;45.922;6.716;2023-05-24T01:50:31;15.40;99.90
21387;DHT22;10854;45.922;6.716;2023-05-24T01:53:07;15.40;99.90
21387;DHT22;10854;45.922;6.716;2023-05-24T01:55:36;15.40;99.90
21387;DHT22;10854;45.922;6.716;2023-05-24T01:58:06;15.40;99.90
21387;DHT22;10854;45.922;6.716;2023-05-24T02:00:38;15.40;99.90
21387;DHT22;10854;45.922;6.716;2023-05-24T02:03:07;15.40;99.90
21387;DHT22;10854;45.922;6.716;2023-05-24T02:05:37;15.40;99.90
21387;DHT22;10854;45.922;6.716;2023-05-24T02:08:06;15.50;99.90
21387;DHT22;10854;45.922;6.716;2023-05-24T02:10:36;15.50;99.90
21387;DHT22;10854;45.922;6.716;2023-05-24T02:13:07;15.50;99.90
21387;DHT22;10854;45.922;6.716;2023-05-24T02:15:35;15.60;99.90
21387;DHT22;10854;45.922;6.716;2023-05-24T02:18:05;15.60;99.90
21387;DHT22;10854;45.922;6.716;2023-05-24T02:20:34;15.60;99.90
21387;DHT22;10854;45.922;6.716;2023-05-24T02:23:04;15.60;99.90
21387;DHT22;10854;45.922;6.716;2023-05-24T02:25:32;15.60;99.90
21387;DHT22;10854;45.922;6.716;2023-05-24T02:28:01;15.60;99.90
21387;DHT22;10854;45.922;6.716;2023-05-24T02:30:29;15.60;99.90
21387;DHT22;10854;45.922;6.716;2023-05-24T02:32:57;15.60;99.90
21387;DHT22;10854;45.922;6.716;2023-05-24T02:35:27;15.60;99.90
21387;DHT22;10854;45.922;6.716;2023-05-24T02:37:55;15.60;99.90
21387;DHT22;10854;45.922;6.716;2023-05-24T02:40:25;15.60;99.90
21387;DHT22;10854;45.922;6.716;2023-05-24T02:42:54;15.60;99.90
21387;DHT22;10854;45.922;6.716;2023-05-24T02:45:22;15.60;99.90
21387;DHT22;10854;45.922;6.716;2023-05-24T02:47:51;15.60;99.90
21387;DHT22;10854;45.922;6.716;2023-05-24T02:50:20;15.60;99.90
21387;DHT22;10854;45.922;6.716;2023-05-24T02:52:48;15.60;99.90
21387;DHT22;10854;45.922;6.716;2023-05-24T02:55:18;15.50;99.90
21387;DHT22;10854;45.922;6.716;2023-05-24T02:57:46;15.50;99.90
21387;DHT22;10854;45.922;6.716;2023-05-24T03:00:18;15.50;99.90
21387;DHT22;10854;45.922;6.716;2023-05-24T03:02:47;15.50;99.90
21387;DHT22;10854;45.922;6.716;2023-05-24T03:05:18;15.50;99.90
21387;DHT22;10854;45.922;6.716;2023-05-24T03:07:46;15.50;99.90
21387;DHT22;10854;45.922;6.716;2023-05-24T03:10:15;15.50;99.90
21387;DHT22;10854;45.922;6.716;2023-05-24T03:12:43;15.50;99.90
21387;DHT22;10854;45.922;6.716;2023-05-24T03:15:12;15.50;99.90
21387;DHT22;10854;45.922;6.716;2023-05-24T03:17:40;15.50;99.90
21387;DHT22;10854;45.922;6.716;2023-05-24T03:20:09;15.50;99.90
21387;DHT22;10854;45.922;6.716;2023-05-24T03:22:38;15.60;99.90
21387;DHT22;10854;45.922;6.716;2023-05-24T03:25:07;15.50;99.90
21387;DHT22;10854;45.922;6.716;2023-05-24T03:27:36;15.60;99.90
21387;DHT22;10854;45.922;6.716;2023-05-24T03:30:05;15.50;99.90
21387;DHT22;10854;45.922;6.716;2023-05-24T03:32:34;15.50;99.90
21387;DHT22;10854;45.922;6.716;2023-05-24T03:35:02;15.40;99.90
21387;DHT22;10854;45.922;6.716;2023-05-24T03:37:31;15.30;99.90
21387;DHT22;10854;45.922;6.716;2023-05-24T03:39:59;15.00;99.90
21387;DHT22;10854;45.922;6.716;2023-05-24T03:42:27;14.80;99.90
21387;DHT22;10854;45.922;6.716;2023-05-24T03:44:56;14.60;99.90
21387;DHT22;10854;45.922;6.716;2023-05-24T03:47:25;14.50;99.90
21387;DHT22;10854;45.922;6.716;2023-05-24T03:49:54;14.30;99.90
21387;DHT22;10854;45.922;6.716;2023-05-24T03:52:23;14.20;99.90
21387;DHT22;10854;45.922;6.716;2023-05-24T03:54:51;14.10;99.90
21387;DHT22;10854;45.922;6.716;2023-05-24T03:57:20;14.00;99.90
21387;DHT22;10854;45.922;6.716;2023-05-24T03:59:48;13.90;99.90
21387;DHT22;10854;45.922;6.716;2023-05-24T04:02:17;13.90;99.90
21387;DHT22;10854;45.922;6.716;2023-05-24T04:04:45;13.90;99.90
21387;DHT22;10854;45.922;6.716;2023-05-24T04:07:13;13.80;99.90
21387;DHT22;10854;45.922;6.716;2023-05-24T04:09:43;13.80;99.90
21387;DHT22;10854;45.922;6.716;2023-05-24T04:12:11;13.70;99.90
21387;DHT22;10854;45.922;6.716;2023-05-24T04:14:40;13.70;99.90
21387;DHT22;10854;45.922;6.716;2023-05-24T04:17:09;13.70;99.90
21387;DHT22;10854;45.922;6.716;2023-05-24T04:19:37;13.60;99.90
21387;DHT22;10854;45.922;6.716;2023-05-24T04:22:06;13.60;99.90
21387;DHT22;10854;45.922;6.716;2023-05-24T04:24:34;13.60;99.90
21387;DHT22;10854;45.922;6.716;2023-05-24T04:27:03;13.60;99.90
21387;DHT22;10854;45.922;6.716;2023-05-24T04:29:31;13.60;99.90
21387;DHT22;10854;45.922;6.716;2023-05-24T04:32:01;13.60;99.90
21387;DHT22;10854;45.922;6.716;2023-05-24T04:34:29;13.60;99.90
21387;DHT22;10854;45.922;6.716;2023-05-24T04:37:01;13.60;99.90
21387;DHT22;10854;45.922;6.716;2023-05-24T04:39:29;13.60;99.90
21387;DHT22;10854;45.922;6.716;2023-05-24T04:41:59;13.60;99.90
21387;DHT22;10854;45.922;6.716;2023-05-24T04:44:27;13.60;99.90
21387;DHT22;10854;45.922;6.716;2023-05-24T04:46:56;13.60;99.90
21387;DHT22;10854;45.922;6.716;2023-05-24T04:49:24;13.60;99.90
21387;DHT22;10854;45.922;6.716;2023-05-24T04:51:53;13.70;99.90
21387;DHT22;10854;45.922;6.716;2023-05-24T04:54:23;13.70;99.90
21387;DHT22;10854;45.922;6.716;2023-05-24T04:56:51;13.70;99.90
21387;DHT22;10854;45.922;6.716;2023-05-24T04:59:20;13.60;99.90
21387;DHT22;10854;45.922;6.716;2023-05-24T05:01:48;13.70;99.90
21387;DHT22;10854;45.922;6.716;2023-05-24T05:04:17;13.70;99.90
21387;DHT22;10854;45.922;6.716;2023-05-24T05:06:46;13.70;99.90
21387;DHT22;10854;45.922;6.716;2023-05-24T05:09:15;13.80;99.90
21387;DHT22;10854;45.922;6.716;2023-05-24T05:11:45;13.70;99.90
21387;DHT22;10854;45.922;6.716;2023-05-24T05:14:14;13.80;99.90
21387;DHT22;10854;45.922;6.716;2023-05-24T05:16:45;13.80;99.90
21387;DHT22;10854;45.922;6.716;2023-05-24T05:19:13;13.80;99.90
21387;DHT22;10854;45.922;6.716;2023-05-24T05:21:41;13.80;99.90
21387;DHT22;10854;45.922;6.716;2023-05-24T05:24:11;13.90;99.90
21387;DHT22;10854;45.922;6.716;2023-05-24T05:26:40;13.90;99.90
21387;DHT22;10854;45.922;6.716;2023-05-24T05:29:08;14.00;99.90
21387;DHT22;10854;45.922;6.716;2023-05-24T05:31:37;14.00;99.90
21387;DHT22;10854;45.922;6.716;2023-05-24T05:34:06;14.10;99.90
21387;DHT22;10854;45.922;6.716;2023-05-24T05:36:37;14.20;99.90
21387;DHT22;10854;45.922;6.716;2023-05-24T05:39:08;14.20;99.90
21387;DHT22;10854;45.922;6.716;2023-05-24T05:41:39;14.20;99.90
21387;DHT22;10854;45.922;6.716;2023-05-24T05:44:12;14.30;99.90
21387;DHT22;10854;45.922;6.716;2023-05-24T05:46:40;14.40;99.90
21387;DHT22;10854;45.922;6.716;2023-05-24T05:49:14;14.50;99.90
21387;DHT22;10854;45.922;6.716;2023-05-24T05:51:45;14.60;99.90
21387;DHT22;10854;45.922;6.716;2023-05-24T05:54:16;14.60;99.90
21387;DHT22;10854;45.922;6.716;2023-05-24T05:56:45;14.70;99.90
21387;DHT22;10854;45.922;6.716;2023-05-24T05:59:14;14.80;99.90
21387;DHT22;10854;45.922;6.716;2023-05-24T06:01:44;14.90;99.90
21387;DHT22;10854;45.922;6.716;2023-05-24T06:04:15;15.00;99.90
21387;DHT22;10854;45.922;6.716;2023-05-24T06:06:44;15.10;99.90
21387;DHT22;10854;45.922;6.716;2023-05-24T06:09:16;15.10;99.90
21387;DHT22;10854;45.922;6.716;2023-05-24T06:11:44;15.20;99.90
21387;DHT22;10854;45.922;6.716;2023-05-24T06:14:14;15.20;99.90
21387;DHT22;10854;45.922;6.716;2023-05-24T06:16:49;15.20;99.90
21387;DHT22;10854;45.922;6.716;2023-05-24T06:19:19;15.20;99.90
21387;DHT22;10854;45.922;6.716;2023-05-24T06:21:48;15.40;99.90
21387;DHT22;10854;45.922;6.716;2023-05-24T06:24:17;15.50;99.90
21387;DHT22;10854;45.922;6.716;2023-05-24T06:26:50;15.40;99.90
21387;DHT22;10854;45.922;6.716;2023-05-24T06:29:19;15.70;99.90
21387;DHT22;10854;45.922;6.716;2023-05-24T06:31:48;15.90;99.90
21387;DHT22;10854;45.922;6.716;2023-05-24T06:34:18;16.30;99.90
21387;DHT22;10854;45.922;6.716;2023-05-24T06:36:50;16.70;99.90
21387;DHT22;10854;45.922;6.716;2023-05-24T06:39:19;17.20;99.90
21387;DHT22;10854;45.922;6.716;2023-05-24T06:41:48;17.70;99.90
21387;DHT22;10854;45.922;6.716;2023-05-24T06:44:18;18.00;99.90
21387;DHT22;10854;45.922;6.716;2023-05-24T06:46:46;18.40;99.90
21387;DHT22;10854;45.922;6.716;2023-05-24T06:49:15;18.50;99.90
21387;DHT22;10854;45.922;6.716;2023-05-24T06:51:43;18.60;99.90
21387;DHT22;10854;45.922;6.716;2023-05-24T06:54:16;18.70;99.90
21387;DHT22;10854;45.922;6.716;2023-05-24T06:56:45;18.90;99.90
21387;DHT22;10854;45.922;6.716;2023-05-24T06:59:13;19.00;99.90
21387;DHT22;10854;45.922;6.716;2023-05-24T07:01:42;19.00;99.90
21387;DHT22;10854;45.922;6.716;2023-05-24T07:04:11;19.00;99.90
21387;DHT22;10854;45.922;6.716;2023-05-24T07:06:39;19.10;99.90
21387;DHT22;10854;45.922;6.716;2023-05-24T07:09:08;19.00;99.90
21387;DHT22;10854;45.922;6.716;2023-05-24T07:11:37;19.00;99.90
21387;DHT22;10854;45.922;6.716;2023-05-24T07:14:05;18.90;99.90
21387;DHT22;10854;45.922;6.716;2023-05-24T07:16:34;19.00;99.90
21387;DHT22;10854;45.922;6.716;2023-05-24T07:19:02;19.10;99.90
21387;DHT22;10854;45.922;6.716;2023-05-24T07:21:31;19.50;99.90
21387;DHT22;10854;45.922;6.716;2023-05-24T07:23:59;20.00;99.90
21387;DHT22;10854;45.922;6.716;2023-05-24T07:26:29;20.40;99.90
21387;DHT22;10854;45.922;6.716;2023-05-24T07:28:58;21.00;99.90
21387;DHT22;10854;45.922;6.716;2023-05-24T07:31:26;21.80;99.90
21387;DHT22;10854;45.922;6.716;2023-05-24T07:33:56;22.30;99.90
21387;DHT22;10854;45.922;6.716;2023-05-24T07:36:25;22.60;94.90
21387;DHT22;10854;45.922;6.716;2023-05-24T07:38:53;22.70;91.80
21387;DHT22;10854;45.922;6.716;2023-05-24T07:41:25;22.80;90.60
21387;DHT22;10854;45.922;6.716;2023-05-24T07:43:55;22.80;88.60
21387;DHT22;10854;45.922;6.716;2023-05-24T07:46:23;22.70;87.00
21387;DHT22;10854;45.922;6.716;2023-05-24T07:48:52;22.50;86.40
21387;DHT22;10854;45.922;6.716;2023-05-24T07:51:20;22.30;86.00
21387;DHT22;10854;45.922;6.716;2023-05-24T07:53:49;22.10;84.70
21387;DHT22;10854;45.922;6.716;2023-05-24T07:56:17;21.90;85.40
21387;DHT22;10854;45.922;6.716;2023-05-24T07:58:46;21.70;85.00
21387;DHT22;10854;45.922;6.716;2023-05-24T08:01:16;21.60;85.50
21387;DHT22;10854;45.922;6.716;2023-05-24T08:03:46;21.80;86.90
21387;DHT22;10854;45.922;6.716;2023-05-24T08:06:14;22.00;86.00
21387;DHT22;10854;45.922;6.716;2023-05-24T08:08:43;22.20;85.30
21387;DHT22;10854;45.922;6.716;2023-05-24T08:11:12;22.50;83.60
21387;DHT22;10854;45.922;6.716;2023-05-24T08:13:41;22.50;82.20
21387;DHT22;10854;45.922;6.716;2023-05-24T08:16:12;22.50;81.50
21387;DHT22;10854;45.922;6.716;2023-05-24T08:18:41;22.60;80.00
21387;DHT22;10854;45.922;6.716;2023-05-24T08:21:09;22.50;79.70
21387;DHT22;10854;45.922;6.716;2023-05-24T08:23:38;22.30;79.80
21387;DHT22;10854;45.922;6.716;2023-05-24T08:26:08;22.10;79.80
21387;DHT22;10854;45.922;6.716;2023-05-24T08:28:36;22.10;80.30
21387;DHT22;10854;45.922;6.716;2023-05-24T08:31:05;22.30;81.50
21387;DHT22;10854;45.922;6.716;2023-05-24T08:33:34;22.70;80.60
21387;DHT22;10854;45.922;6.716;2023-05-24T08:36:03;22.90;78.00
21387;DHT22;10854;45.922;6.716;2023-05-24T08:38:31;22.80;76.60
21387;DHT22;10854;45.922;6.716;2023-05-24T08:41:04;22.80;77.00
21387;DHT22;10854;45.922;6.716;2023-05-24T08:43:34;23.00;77.80
21387;DHT22;10854;45.922;6.716;2023-05-24T08:46:04;23.40;77.60
21387;DHT22;10854;45.922;6.716;2023-05-24T08:48:35;23.80;77.20
21387;DHT22;10854;45.922;6.716;2023-05-24T08:51:06;24.20;74.20
21387;DHT22;10854;45.922;6.716;2023-05-24T08:53:35;24.40;73.40
21387;DHT22;10854;45.922;6.716;2023-05-24T08:56:05;24.70;73.30
21387;DHT22;10854;45.922;6.716;2023-05-24T08:58:37;25.10;73.00
21387;DHT22;10854;45.922;6.716;2023-05-24T09:01:07;25.50;71.90
21387;DHT22;10854;45.922;6.716;2023-05-24T09:03:36;25.70;70.10
21387;DHT22;10854;45.922;6.716;2023-05-24T09:06:07;26.10;68.60
21387;DHT22;10854;45.922;6.716;2023-05-24T09:08:37;26.40;66.80
21387;DHT22;10854;45.922;6.716;2023-05-24T09:11:08;26.60;64.80
21387;DHT22;10854;45.922;6.716;2023-05-24T09:13:39;26.70;64.60
21387;DHT22;10854;45.922;6.716;2023-05-24T09:16:08;26.90;64.20
21387;DHT22;10854;45.922;6.716;2023-05-24T09:18:38;26.90;62.60
21387;DHT22;10854;45.922;6.716;2023-05-24T09:21:09;27.00;62.40
21387;DHT22;10854;45.922;6.716;2023-05-24T09:23:40;26.90;62.50
21387;DHT22;10854;45.922;6.716;2023-05-24T09:26:09;26.50;63.30
21387;DHT22;10854;45.922;6.716;2023-05-24T09:28:38;26.10;63.80
21387;DHT22;10854;45.922;6.716;2023-05-24T09:31:08;26.00;63.60
21387;DHT22;10854;45.922;6.716;2023-05-24T09:33:40;25.70;64.30
21387;DHT22;10854;45.922;6.716;2023-05-24T09:36:08;25.60;64.80
21387;DHT22;10854;45.922;6.716;2023-05-24T09:38:37;25.80;65.10
21387;DHT22;10854;45.922;6.716;2023-05-24T09:41:07;25.80;64.20
21387;DHT22;10854;45.922;6.716;2023-05-24T09:43:47;25.80;64.40
21387;DHT22;10854;45.922;6.716;2023-05-24T09:46:19;26.00;63.30
21387;DHT22;10854;45.922;6.716;2023-05-24T09:48:58;26.10;62.30
21387;DHT22;10854;45.922;6.716;2023-05-24T09:51:27;26.30;62.10
21387;DHT22;10854;45.922;6.716;2023-05-24T09:54:01;26.50;62.40
21387;DHT22;10854;45.922;6.716;2023-05-24T09:56:32;26.80;61.90
21387;DHT22;10854;45.922;6.716;2023-05-24T09:59:10;27.10;60.80
21387;DHT22;10854;45.922;6.716;2023-05-24T10:01:38;27.60;60.30
21387;DHT22;10854;45.922;6.716;2023-05-24T10:04:07;28.00;59.60
21387;DHT22;10854;45.922;6.716;2023-05-24T10:06:37;28.00;59.00
21387;DHT22;10854;45.922;6.716;2023-05-24T10:09:06;28.00;58.80
21387;DHT22;10854;45.922;6.716;2023-05-24T10:11:36;27.70;57.90
21387;DHT22;10854;45.922;6.716;2023-05-24T10:14:08;27.10;59.10
21387;DHT22;10854;45.922;6.716;2023-05-24T10:16:38;26.60;60.00
21387;DHT22;10854;45.922;6.716;2023-05-24T10:19:06;26.40;61.40
21387;DHT22;10854;45.922;6.716;2023-05-24T10:21:36;26.20;61.60
21387;DHT22;10854;45.922;6.716;2023-05-24T10:24:08;25.90;61.70
21387;DHT22;10854;45.922;6.716;2023-05-24T10:26:38;25.50;62.80
21387;DHT22;10854;45.922;6.716;2023-05-24T10:29:11;25.10;63.90
21387;DHT22;10854;45.922;6.716;2023-05-24T10:31:45;25.00;65.60
21387;DHT22;10854;45.922;6.716;2023-05-24T10:34:14;25.10;65.60
21387;DHT22;10854;45.922;6.716;2023-05-24T10:36:43;25.20;65.60
21387;DHT22;10854;45.922;6.716;2023-05-24T10:39:12;25.60;64.60
21387;DHT22;10854;45.922;6.716;2023-05-24T10:41:41;26.00;64.00
21387;DHT22;10854;45.922;6.716;2023-05-24T10:44:11;26.40;62.90
21387;DHT22;10854;45.922;6.716;2023-05-24T10:47:20;26.70;61.60
21387;DHT22;10854;45.922;6.716;2023-05-24T10:49:56;27.00;60.80
21387;DHT22;10854;45.922;6.716;2023-05-24T10:52:35;27.00;60.50
21387;DHT22;10854;45.922;6.716;2023-05-24T10:55:05;27.10;59.70
21387;DHT22;10854;45.922;6.716;2023-05-24T10:57:38;27.20;59.60
21387;DHT22;10854;45.922;6.716;2023-05-24T11:00:42;27.50;59.00
21387;DHT22;10854;45.922;6.716;2023-05-24T11:03:11;27.80;59.10
21387;DHT22;10854;45.922;6.716;2023-05-24T11:08:28;27.50;58.30
21387;DHT22;10854;45.922;6.716;2023-05-24T11:11:13;26.70;59.70
21387;DHT22;10854;45.922;6.716;2023-05-24T11:13:55;25.70;62.60
21387;DHT22;10854;45.922;6.716;2023-05-24T11:16:36;24.50;66.90
21387;DHT22;10854;45.922;6.716;2023-05-24T11:19:18;23.00;70.80
21387;DHT22;10854;45.922;6.716;2023-05-24T11:21:56;21.80;76.70
21387;DHT22;10854;45.922;6.716;2023-05-24T11:24:28;20.90;80.60
21387;DHT22;10854;45.922;6.716;2023-05-24T11:26:57;20.10;83.20
21387;DHT22;10854;45.922;6.716;2023-05-24T11:29:26;19.50;85.80
21387;DHT22;10854;45.922;6.716;2023-05-24T11:31:57;19.20;88.40
21387;DHT22;10854;45.922;6.716;2023-05-24T11:34:32;18.80;89.70
21387;DHT22;10854;45.922;6.716;2023-05-24T11:37:01;18.50;91.40
21387;DHT22;10854;45.922;6.716;2023-05-24T11:39:34;18.40;94.20
21387;DHT22;10854;45.922;6.716;2023-05-24T11:42:04;18.40;95.80
21387;DHT22;10854;45.922;6.716;2023-05-24T11:44:34;18.50;95.40
21387;DHT22;10854;45.922;6.716;2023-05-24T11:47:06;18.50;96.00
21387;DHT22;10854;45.922;6.716;2023-05-24T11:49:35;18.60;96.20
21387;DHT22;10854;45.922;6.716;2023-05-24T11:52:03;18.70;96.40
21387;DHT22;10854;45.922;6.716;2023-05-24T11:54:32;18.80;96.50
21387;DHT22;10854;45.922;6.716;2023-05-24T11:57:01;18.90;96.90
21387;DHT22;10854;45.922;6.716;2023-05-24T11:59:30;19.00;97.00
21387;DHT22;10854;45.922;6.716;2023-05-24T12:02:04;19.00;96.40
21387;DHT22;10854;45.922;6.716;2023-05-24T12:04:33;19.10;95.60
21387;DHT22;10854;45.922;6.716;2023-05-24T12:07:09;19.10;95.20
21387;DHT22;10854;45.922;6.716;2023-05-24T12:09:39;19.20;95.30
21387;DHT22;10854;45.922;6.716;2023-05-24T12:12:07;19.30;94.70
21387;DHT22;10854;45.922;6.716;2023-05-24T12:14:38;19.30;94.70
21387;DHT22;10854;45.922;6.716;2023-05-24T12:17:13;19.40;95.40
21387;DHT22;10854;45.922;6.716;2023-05-24T12:19:48;19.30;96.50
21387;DHT22;10854;45.922;6.716;2023-05-24T12:22:18;19.30;97.40
21387;DHT22;10854;45.922;6.716;2023-05-24T12:24:48;19.20;97.80
21387;DHT22;10854;45.922;6.716;2023-05-24T12:27:19;19.20;98.80
21387;DHT22;10854;45.922;6.716;2023-05-24T12:29:47;19.50;98.60
21387;DHT22;10854;45.922;6.716;2023-05-24T12:32:17;19.90;98.50
21387;DHT22;10854;45.922;6.716;2023-05-24T12:34:48;20.40;96.50
21387;DHT22;10854;45.922;6.716;2023-05-24T12:37:17;20.90;95.90
21387;DHT22;10854;45.922;6.716;2023-05-24T12:39:45;21.30;95.00
21387;DHT22;10854;45.922;6.716;2023-05-24T12:42:13;21.60;94.10
21387;DHT22;10854;45.922;6.716;2023-05-24T12:44:42;21.80;93.20
21387;DHT22;10854;45.922;6.716;2023-05-24T12:47:12;22.00;91.40
21387;DHT22;10854;45.922;6.716;2023-05-24T12:49:40;22.10;89.30
21387;DHT22;10854;45.922;6.716;2023-05-24T12:52:10;22.10;88.20
21387;DHT22;10854;45.922;6.716;2023-05-24T12:54:39;22.10;88.50
21387;DHT22;10854;45.922;6.716;2023-05-24T12:57:07;22.00;88.80
21387;DHT22;10854;45.922;6.716;2023-05-24T12:59:36;21.90;89.10
21387;DHT22;10854;45.922;6.716;2023-05-24T13:02:04;21.70;89.90
21387;DHT22;10854;45.922;6.716;2023-05-24T13:04:33;21.50;90.80
21387;DHT22;10854;45.922;6.716;2023-05-24T13:07:02;21.10;92.00
21387;DHT22;10854;45.922;6.716;2023-05-24T13:09:31;20.70;93.50
21387;DHT22;10854;45.922;6.716;2023-05-24T13:12:01;20.30;95.10
21387;DHT22;10854;45.922;6.716;2023-05-24T13:14:29;20.00;96.80
21387;DHT22;10854;45.922;6.716;2023-05-24T13:16:58;19.70;99.90
21387;DHT22;10854;45.922;6.716;2023-05-24T13:19:26;19.30;99.90
21387;DHT22;10854;45.922;6.716;2023-05-24T13:21:55;18.90;99.90
21387;DHT22;10854;45.922;6.716;2023-05-24T13:24:23;18.70;99.90
21387;DHT22;10854;45.922;6.716;2023-05-24T13:26:52;18.50;99.90
21387;DHT22;10854;45.922;6.716;2023-05-24T13:29:21;18.40;99.90
21387;DHT22;10854;45.922;6.716;2023-05-24T13:31:52;18.20;99.90
21387;DHT22;10854;45.922;6.716;2023-05-24T13:34:21;18.10;99.90
21387;DHT22;10854;45.922;6.716;2023-05-24T13:36:53;18.10;99.90
21387;DHT22;10854;45.922;6.716;2023-05-24T13:39:21;18.00;99.90
21387;DHT22;10854;45.922;6.716;2023-05-24T13:41:50;18.00;99.90
21387;DHT22;10854;45.922;6.716;2023-05-24T13:44:19;17.90;99.90
21387;DHT22;10854;45.922;6.716;2023-05-24T13:46:48;17.90;99.90
21387;DHT22;10854;45.922;6.716;2023-05-24T13:49:16;17.80;99.90
21387;DHT22;10854;45.922;6.716;2023-05-24T13:51:45;17.70;99.90
21387;DHT22;10854;45.922;6.716;2023-05-24T13:54:14;17.70;99.90
21387;DHT22;10854;45.922;6.716;2023-05-24T13:56:43;17.90;99.90
21387;DHT22;10854;45.922;6.716;2023-05-24T13:59:11;17.90;99.90
21387;DHT22;10854;45.922;6.716;2023-05-24T14:01:40;18.00;99.90
21387;DHT22;10854;45.922;6.716;2023-05-24T14:04:09;18.10;99.90
21387;DHT22;10854;45.922;6.716;2023-05-24T14:06:37;18.20;99.90
21387;DHT22;10854;45.922;6.716;2023-05-24T14:09:06;18.40;99.90
21387;DHT22;10854;45.922;6.716;2023-05-24T14:11:35;18.50;99.90
21387;DHT22;10854;45.922;6.716;2023-05-24T14:14:04;18.60;99.90
21387;DHT22;10854;45.922;6.716;2023-05-24T14:16:35;18.70;99.90
21387;DHT22;10854;45.922;6.716;2023-05-24T14:19:03;18.80;99.90
21387;DHT22;10854;45.922;6.716;2023-05-24T14:21:32;18.70;99.90
21387;DHT22;10854;45.922;6.716;2023-05-24T14:24:00;18.50;99.90
21387;DHT22;10854;45.922;6.716;2023-05-24T14:26:29;18.30;99.90
21387;DHT22;10854;45.922;6.716;2023-05-24T14:28:57;18.20;99.90
21387;DHT22;10854;45.922;6.716;2023-05-24T14:31:26;18.00;99.90
21387;DHT22;10854;45.922;6.716;2023-05-24T14:33:55;17.90;99.90
21387;DHT22;10854;45.922;6.716;2023-05-24T14:36:23;17.70;99.90
21387;DHT22;10854;45.922;6.716;2023-05-24T14:38:52;17.50;99.90
21387;DHT22;10854;45.922;6.716;2023-05-24T14:41:20;17.40;99.90
21387;DHT22;10854;45.922;6.716;2023-05-24T14:43:49;17.10;99.90
21387;DHT22;10854;45.922;6.716;2023-05-24T14:46:18;16.80;99.90
21387;DHT22;10854;45.922;6.716;2023-05-24T14:48:46;16.60;99.90
21387;DHT22;10854;45.922;6.716;2023-05-24T14:51:14;16.40;99.90
21387;DHT22;10854;45.922;6.716;2023-05-24T14:53:43;16.10;99.90
21387;DHT22;10854;45.922;6.716;2023-05-24T14:56:12;16.10;99.90
21387;DHT22;10854;45.922;6.716;2023-05-24T14:58:41;16.10;99.90
21387;DHT22;10854;45.922;6.716;2023-05-24T15:01:10;16.20;99.90
21387;DHT22;10854;45.922;6.716;2023-05-24T15:03:38;16.20;99.90
21387;DHT22;10854;45.922;6.716;2023-05-24T15:06:07;16.20;99.90
21387;DHT22;10854;45.922;6.716;2023-05-24T15:08:35;16.10;99.90
21387;DHT22;10854;45.922;6.716;2023-05-24T15:11:04;16.20;99.90
21387;DHT22;10854;45.922;6.716;2023-05-24T15:13:33;16.30;99.90
21387;DHT22;10854;45.922;6.716;2023-05-24T15:16:01;16.50;99.90
21387;DHT22;10854;45.922;6.716;2023-05-24T15:18:30;16.60;99.90
21387;DHT22;10854;45.922;6.716;2023-05-24T15:20:58;16.80;99.90
21387;DHT22;10854;45.922;6.716;2023-05-24T15:23:27;16.80;99.90
21387;DHT22;10854;45.922;6.716;2023-05-24T15:25:55;16.80;99.90
21387;DHT22;10854;45.922;6.716;2023-05-24T15:28:24;16.80;99.90
21387;DHT22;10854;45.922;6.716;2023-05-24T15:30:52;16.90;99.90
21387;DHT22;10854;45.922;6.716;2023-05-24T15:33:21;17.00;99.90
21387;DHT22;10854;45.922;6.716;2023-05-24T15:35:51;17.20;99.90
21387;DHT22;10854;45.922;6.716;2023-05-24T15:38:20;17.40;99.90
21387;DHT22;10854;45.922;6.716;2023-05-24T15:40:50;17.70;99.90
21387;DHT22;10854;45.922;6.716;2023-05-24T15:43:18;17.80;99.90
21387;DHT22;10854;45.922;6.716;2023-05-24T15:45:47;17.80;99.90
21387;DHT22;10854;45.922;6.716;2023-05-24T15:48:15;17.80;99.90
21387;DHT22;10854;45.922;6.716;2023-05-24T15:50:44;17.80;99.90
21387;DHT22;10854;45.922;6.716;2023-05-24T15:53:15;17.80;99.90
21387;DHT22;10854;45.922;6.716;2023-05-24T15:55:44;17.80;99.90
21387;DHT22;10854;45.922;6.716;2023-05-24T15:58:13;17.90;99.90
21387;DHT22;10854;45.922;6.716;2023-05-24T16:00:42;17.90;99.90